createdAt,value
2023-04-24T00:01:10.084Z,58.48
2023-04-24T00:03:38.254Z,58.47
2023-04-24T00:06:06.368Z,58.52
2023-04-24T00:08:33.469Z,58.47
2023-04-24T00:11:00.491Z,58.36
2023-04-24T00:13:29.300Z,58.58
2023-04-24T00:15:56.986Z,58.50
2023-04-24T00:18:23.612Z,58.56
2023-04-24T00:20:50.303Z,58.56
2023-04-24T00:23:17.076Z,58.59
2023-04-24T00:25:43.758Z,58.73
2023-04-24T00:28:10.551Z,58.60
2023-04-24T00:30:37.509Z,58.52
2023-04-24T00:33:04.322Z,58.54
2023-04-24T00:35:31.242Z,58.73
2023-04-24T00:37:57.936Z,58.69
2023-04-24T00:40:24.796Z,58.83
2023-04-24T00:42:51.591Z,58.84
2023-04-24T00:45:18.319Z,58.84
2023-04-24T00:47:46.422Z,58.96
2023-04-24T00:50:15.290Z,58.92
2023-04-24T00:52:42.135Z,58.86
2023-04-24T00:55:09.524Z,58.93
2023-04-24T00:57:36.636Z,58.96
2023-04-24T01:00:04.431Z,58.99
2023-04-24T01:02:31.442Z,58.89
2023-04-24T01:04:58.384Z,58.87
2023-04-24T01:07:28.606Z,58.93
2023-04-24T01:09:55.400Z,58.91
2023-04-24T01:12:22.255Z,58.92
2023-04-24T01:14:51.006Z,58.87
2023-04-24T01:17:17.992Z,58.93
2023-04-24T01:19:47.873Z,58.84
2023-04-24T01:22:15.374Z,59.06
2023-04-24T01:24:43.126Z,58.98
2023-04-24T01:27:12.985Z,59.04
2023-04-24T01:29:40.570Z,58.99
2023-04-24T01:32:08.353Z,59.10
2023-04-24T01:34:35.376Z,58.98
2023-04-24T01:37:02.237Z,59.07
2023-04-24T01:39:29.656Z,58.87
2023-04-24T01:41:57.205Z,59.10
2023-04-24T01:44:24.639Z,59.08
2023-04-24T01:46:51.631Z,59.13
2023-04-24T01:49:18.859Z,59.01
2023-04-24T01:51:46.169Z,59.09
2023-04-24T01:54:13.109Z,59.18
2023-04-24T01:56:43.843Z,59.16
2023-04-24T01:59:13.575Z,59.21
2023-04-24T02:01:40.715Z,59.19
2023-04-24T02:04:08.804Z,59.29
2023-04-24T02:06:36.328Z,59.13
2023-04-24T02:09:04.419Z,59.32
2023-04-24T02:11:31.580Z,59.27
2023-04-24T02:13:58.630Z,59.32
2023-04-24T02:16:25.912Z,59.40
2023-04-24T02:18:52.844Z,59.15
2023-04-24T02:21:19.562Z,59.34
2023-04-24T02:23:46.235Z,59.22
2023-04-24T02:26:13.921Z,59.19
2023-04-24T02:28:40.789Z,59.25
2023-04-24T02:31:07.890Z,59.17
2023-04-24T02:33:34.630Z,59.21
2023-04-24T02:36:01.381Z,59.01
2023-04-24T02:38:28.302Z,59.29
2023-04-24T02:40:55.208Z,59.24
2023-04-24T02:43:22.041Z,59.18
2023-04-24T02:45:48.760Z,59.38
2023-04-24T02:48:15.784Z,59.34
2023-04-24T02:50:42.450Z,59.39
2023-04-24T02:53:09.244Z,59.36
2023-04-24T02:55:36.675Z,59.27
2023-04-24T02:58:03.588Z,59.19
2023-04-24T03:00:30.989Z,59.51
2023-04-24T03:02:58.015Z,59.47
2023-04-24T03:05:24.947Z,59.40
2023-04-24T03:07:53.624Z,59.37
2023-04-24T03:10:23.723Z,59.31
2023-04-24T03:12:50.674Z,59.43
2023-04-24T03:15:18.852Z,59.47
2023-04-24T03:17:45.611Z,59.57
2023-04-24T03:20:12.697Z,59.60
2023-04-24T03:22:39.518Z,59.51
2023-04-24T03:25:10.336Z,59.33
2023-04-24T03:27:38.357Z,59.36
2023-04-24T03:30:16.624Z,59.60
2023-04-24T03:32:51.165Z,59.53
2023-04-24T03:35:23.552Z,59.58
2023-04-24T03:37:51.138Z,59.60
2023-04-24T03:40:37.995Z,59.65
2023-04-24T03:43:12.883Z,59.68
2023-04-24T03:45:39.684Z,59.62
2023-04-24T03:48:07.415Z,59.71
2023-04-24T03:50:34.725Z,59.70
2023-04-24T03:53:02.195Z,59.76
2023-04-24T03:55:36.226Z,59.78
2023-04-24T03:58:03.602Z,59.66
2023-04-24T04:00:34.342Z,59.71
2023-04-24T04:03:20.107Z,59.70
2023-04-24T04:05:47.294Z,59.74
2023-04-24T04:08:14.023Z,59.75
2023-04-24T04:10:40.838Z,59.69
2023-04-24T04:13:07.616Z,59.78
2023-04-24T04:15:35.744Z,59.66
2023-04-24T04:18:02.629Z,59.74
2023-04-24T04:20:29.995Z,59.65
2023-04-24T04:22:56.903Z,59.72
2023-04-24T04:25:35.340Z,59.80
2023-04-24T04:28:03.018Z,59.82
2023-04-24T04:30:33.186Z,59.77
2023-04-24T04:33:03.641Z,59.88
2023-04-24T04:35:31.956Z,59.94
2023-04-24T04:37:59.837Z,60.02
2023-04-24T04:40:27.379Z,60.02
2023-04-24T04:42:59.282Z,59.86
2023-04-24T04:45:29.512Z,59.92
2023-04-24T04:48:34.879Z,60.02
2023-04-24T04:51:03.377Z,60.07
2023-04-24T04:53:30.408Z,60.01
2023-04-24T04:55:57.445Z,60.16
2023-04-24T04:58:28.545Z,59.92
2023-04-24T05:00:58.619Z,60.27
2023-04-24T05:03:37.205Z,60.20
2023-04-24T05:06:08.087Z,60.21
2023-04-24T05:08:38.097Z,60.30
2023-04-24T05:11:08.026Z,60.10
2023-04-24T05:13:40.708Z,60.25
2023-04-24T05:16:22.784Z,60.10
2023-04-24T05:18:52.319Z,60.35
2023-04-24T05:21:23.610Z,60.31
2023-04-24T05:23:52.234Z,60.42
2023-04-24T05:26:31.132Z,60.32
2023-04-24T05:28:59.978Z,60.36
2023-04-24T05:31:26.864Z,60.43
2023-04-24T05:33:53.590Z,60.24
2023-04-24T05:36:20.612Z,60.22
2023-04-24T05:38:47.388Z,60.16
2023-04-24T05:41:14.860Z,60.15
2023-04-24T05:43:42.097Z,60.16
2023-04-24T05:46:08.708Z,60.07
2023-04-24T05:48:35.576Z,60.07
2023-04-24T05:51:04.353Z,60.10
2023-04-24T05:53:31.524Z,60.01
2023-04-24T05:55:58.484Z,60.27
2023-04-24T05:58:25.502Z,59.99
2023-04-24T06:00:52.389Z,59.95
2023-04-24T06:03:19.403Z,60.03
2023-04-24T06:05:48.272Z,59.88
2023-04-24T06:08:14.955Z,60.06
2023-04-24T06:10:43.947Z,59.95
2023-04-24T06:13:12.151Z,60.20
2023-04-24T06:15:43.375Z,59.81
2023-04-24T06:18:20.421Z,59.84
2023-04-24T06:20:48.774Z,59.93
2023-04-24T06:23:15.646Z,59.97
2023-04-24T06:25:42.558Z,59.95
2023-04-24T06:28:11.965Z,59.93
2023-04-24T06:30:38.636Z,60.07
2023-04-24T06:33:18.765Z,59.87
2023-04-24T06:35:46.658Z,59.74
2023-04-24T06:38:13.242Z,59.91
2023-04-24T06:40:40.263Z,59.44
2023-04-24T06:43:07.343Z,59.58
2023-04-24T06:45:34.238Z,59.45
2023-04-24T06:48:01.071Z,59.40
2023-04-24T06:50:27.862Z,59.24
2023-04-24T06:52:54.582Z,58.88
2023-04-24T06:55:21.533Z,58.62
2023-04-24T06:57:48.385Z,58.43
2023-04-24T07:00:15.494Z,58.48
2023-04-24T07:02:42.252Z,57.34
2023-04-24T07:05:09.457Z,57.15
2023-04-24T07:07:38.955Z,57.16
2023-04-24T07:10:06.708Z,57.18
2023-04-24T07:12:34.026Z,57.01
2023-04-24T07:15:01.605Z,57.13
2023-04-24T07:17:28.420Z,57.01
2023-04-24T07:19:55.147Z,56.97
2023-04-24T07:22:21.863Z,56.94
2023-04-24T07:24:48.644Z,56.90
2023-04-24T07:27:16.271Z,56.82
2023-04-24T07:29:43.925Z,56.87
2023-04-24T07:32:11.422Z,56.46
2023-04-24T07:34:38.328Z,56.55
2023-04-24T07:37:05.382Z,56.39
2023-04-24T07:39:32.670Z,56.45
2023-04-24T07:42:00.452Z,56.26
2023-04-24T07:44:27.362Z,56.21
2023-04-24T07:46:54.541Z,56.25
2023-04-24T07:49:21.160Z,56.36
2023-04-24T07:51:47.894Z,56.36
2023-04-24T07:54:14.710Z,56.14
2023-04-24T07:56:43.999Z,56.27
2023-04-24T07:59:11.393Z,56.27
2023-04-24T08:01:38.056Z,56.15
2023-04-24T08:04:04.887Z,56.28
2023-04-24T08:06:32.940Z,56.15
2023-04-24T08:09:00.763Z,56.02
2023-04-24T08:11:28.257Z,56.29
2023-04-24T08:13:55.978Z,55.99
2023-04-24T08:16:24.940Z,56.07
2023-04-24T08:18:52.214Z,55.99
2023-04-24T08:21:19.855Z,56.19
2023-04-24T08:23:47.171Z,56.14
2023-04-24T08:26:14.988Z,56.16
2023-04-24T08:28:41.653Z,56.16
2023-04-24T08:31:08.351Z,56.14
2023-04-24T08:33:37.844Z,55.82
2023-04-24T08:36:06.098Z,55.89
2023-04-24T08:38:33.083Z,56.03
2023-04-24T08:41:01.251Z,55.96
2023-04-24T08:43:29.220Z,55.92
2023-04-24T08:45:57.768Z,55.87
2023-04-24T08:48:30.870Z,55.75
2023-04-24T08:51:00.123Z,55.86
2023-04-24T08:53:28.097Z,56.08
2023-04-24T08:55:57.743Z,55.81
2023-04-24T08:58:27.539Z,55.85
2023-04-24T09:00:56.982Z,55.74
2023-04-24T09:03:24.305Z,55.81
2023-04-24T09:05:51.667Z,55.65
2023-04-24T09:08:20.022Z,55.93
2023-04-24T09:10:49.076Z,55.59
2023-04-24T09:13:17.824Z,55.71
2023-04-24T09:15:44.664Z,55.65
2023-04-24T09:18:11.461Z,55.79
2023-04-24T09:21:00.212Z,55.71
2023-04-24T09:23:30.508Z,55.43
2023-04-24T09:25:58.349Z,55.32
2023-04-24T09:28:31.463Z,55.63
2023-04-24T09:31:05.502Z,55.79
2023-04-24T09:33:32.393Z,55.30
2023-04-24T09:36:00.204Z,55.56
2023-04-24T09:38:37.770Z,55.37
2023-04-24T09:41:07.007Z,55.47
2023-04-24T09:43:35.302Z,55.47
2023-04-24T09:46:07.570Z,55.57
2023-04-24T09:48:36.436Z,55.26
2023-04-24T09:51:05.179Z,55.40
2023-04-24T09:53:32.231Z,55.50
2023-04-24T09:56:09.310Z,55.39
2023-04-24T09:58:37.512Z,55.29
2023-04-24T10:01:04.740Z,55.62
2023-04-24T10:03:33.549Z,55.54
2023-04-24T10:06:01.978Z,55.33
2023-04-24T10:08:35.561Z,55.46
2023-04-24T10:11:03.059Z,55.22
2023-04-24T10:13:29.969Z,55.85
2023-04-24T10:15:57.447Z,55.83
2023-04-24T10:18:26.212Z,55.59
2023-04-24T10:20:55.877Z,55.58
2023-04-24T10:23:24.213Z,55.52
2023-04-24T10:25:52.237Z,55.38
2023-04-24T10:28:20.306Z,55.44
2023-04-24T10:30:47.520Z,55.08
2023-04-24T10:33:15.223Z,55.12
2023-04-24T10:35:46.857Z,55.13
2023-04-24T10:38:16.766Z,54.96
2023-04-24T10:40:45.110Z,54.93
2023-04-24T10:43:17.100Z,54.73
2023-04-24T10:46:02.325Z,55.04
2023-04-24T10:48:29.042Z,54.70
2023-04-24T10:50:55.894Z,54.90
2023-04-24T10:53:24.582Z,54.88
2023-04-24T10:56:14.481Z,54.80
2023-04-24T10:58:49.144Z,54.88
2023-04-24T11:01:36.079Z,54.96
2023-04-24T11:04:04.709Z,55.16
2023-04-24T11:06:34.132Z,54.83
2023-04-24T11:09:06.395Z,54.80
2023-04-24T11:11:34.077Z,55.01
2023-04-24T11:14:01.077Z,55.06
2023-04-24T11:16:36.319Z,55.19
2023-04-24T11:19:16.313Z,54.97
2023-04-24T11:21:43.306Z,54.93
2023-04-24T11:24:30.164Z,55.03
2023-04-24T11:27:03.426Z,55.31
2023-04-24T11:29:54.315Z,55.13
2023-04-24T11:32:37.448Z,54.95
2023-04-24T11:35:22.073Z,55.00
2023-04-24T11:38:18.842Z,55.19
2023-04-24T11:40:41.229Z,54.91
2023-04-24T11:43:09.759Z,55.21
2023-04-24T11:45:36.676Z,54.99
2023-04-24T11:48:04.617Z,55.18
2023-04-24T11:50:31.722Z,55.08
2023-04-24T11:52:58.685Z,54.95
2023-04-24T11:55:28.328Z,55.36
2023-04-24T11:58:00.533Z,55.01
2023-04-24T12:00:29.062Z,54.98
2023-04-24T12:03:10.334Z,55.08
2023-04-24T12:05:37.925Z,54.97
2023-04-24T12:08:04.983Z,55.06
2023-04-24T12:10:33.585Z,55.23
2023-04-24T12:13:01.404Z,55.01
2023-04-24T12:15:28.928Z,54.77
2023-04-24T12:17:56.751Z,54.90
2023-04-24T12:20:29.979Z,54.86
2023-04-24T12:22:58.158Z,55.11
2023-04-24T12:25:27.640Z,54.84
2023-04-24T12:28:13.672Z,55.12
2023-04-24T12:30:50.126Z,54.88
2023-04-24T12:33:21.001Z,54.96
2023-04-24T12:35:49.772Z,54.90
2023-04-24T12:38:17.203Z,55.20
2023-04-24T12:40:44.728Z,54.89
2023-04-24T12:43:15.974Z,54.87
2023-04-24T12:45:42.719Z,54.81
2023-04-24T12:48:09.371Z,54.17
2023-04-24T12:50:36.134Z,54.82
2023-04-24T12:53:02.869Z,54.62
2023-04-24T12:55:29.599Z,54.91
2023-04-24T12:57:57.085Z,54.69
2023-04-24T13:00:23.951Z,54.82
2023-04-24T13:02:50.827Z,55.51
2023-04-24T13:05:18.092Z,55.51
2023-04-24T13:07:44.838Z,54.85
2023-04-24T13:10:11.800Z,54.60
2023-04-24T13:12:39.749Z,54.92
2023-04-24T13:15:07.320Z,54.73
2023-04-24T13:17:34.321Z,54.98
2023-04-24T13:20:01.008Z,55.02
2023-04-24T13:22:28.318Z,55.26
2023-04-24T13:24:55.580Z,55.38
2023-04-24T13:27:22.303Z,55.25
2023-04-24T13:29:48.950Z,55.06
2023-04-24T13:32:16.083Z,55.25
2023-04-24T13:34:42.861Z,55.63
2023-04-24T13:37:09.603Z,55.34
2023-04-24T13:39:36.410Z,55.34
2023-04-24T13:42:04.882Z,55.57
2023-04-24T13:44:32.612Z,55.36
2023-04-24T13:46:59.668Z,55.28
2023-04-24T13:49:27.604Z,55.56
2023-04-24T13:51:56.115Z,55.40
2023-04-24T13:54:24.479Z,55.76
2023-04-24T13:56:52.827Z,55.82
2023-04-24T13:59:20.933Z,55.66
2023-04-24T14:01:48.722Z,55.68
2023-04-24T14:04:15.829Z,55.53
2023-04-24T14:06:42.680Z,55.63
2023-04-24T14:09:09.491Z,55.51
2023-04-24T14:11:36.468Z,55.98
2023-04-24T14:14:03.912Z,55.74
2023-04-24T14:16:31.842Z,56.07
2023-04-24T14:18:59.001Z,55.84
2023-04-24T14:21:25.705Z,56.02
2023-04-24T14:23:52.322Z,55.98
2023-04-24T14:26:19.001Z,55.89
2023-04-24T14:28:45.641Z,55.83
2023-04-24T14:31:12.439Z,55.91
2023-04-24T14:33:39.114Z,55.05
2023-04-24T14:36:06.736Z,55.64
2023-04-24T14:38:33.905Z,55.40
2023-04-24T14:43:31.142Z,55.09
2023-04-24T14:45:57.836Z,55.26
2023-04-24T14:48:24.518Z,55.04
2023-04-24T14:50:51.464Z,55.25
2023-04-24T14:53:18.471Z,55.05
2023-04-24T14:55:45.553Z,55.20
2023-04-24T14:58:12.290Z,55.65
2023-04-24T15:00:39.231Z,55.45
2023-04-24T15:03:06.082Z,55.27
2023-04-24T15:05:33.486Z,55.22
2023-04-24T15:08:00.573Z,55.44
2023-04-24T15:10:27.344Z,55.48
2023-04-24T15:12:54.084Z,55.36
2023-04-24T15:15:20.749Z,55.71
2023-04-24T15:17:47.407Z,55.36
2023-04-24T15:20:14.211Z,55.81
2023-04-24T15:22:41.131Z,55.84
2023-04-24T15:25:08.403Z,56.01
2023-04-24T15:27:45.906Z,56.00
2023-04-24T15:30:14.357Z,55.97
2023-04-24T15:32:41.377Z,56.20
2023-04-24T15:35:10.155Z,56.17
2023-04-24T15:37:38.990Z,56.30
2023-04-24T15:40:08.286Z,56.25
2023-04-24T15:42:35.843Z,56.32
2023-04-24T15:45:02.665Z,56.34
2023-04-24T15:47:29.405Z,56.50
2023-04-24T15:49:56.106Z,56.30
2023-04-24T15:52:22.977Z,56.45
2023-04-24T15:54:50.130Z,56.66
2023-04-24T15:57:17.072Z,56.41
2023-04-24T15:59:45.388Z,56.30
2023-04-24T16:02:19.386Z,56.37
2023-04-24T16:04:51.018Z,56.65
2023-04-24T16:07:20.902Z,56.60
2023-04-24T16:09:47.714Z,56.76
2023-04-24T16:12:14.729Z,56.08
2023-04-24T16:14:42.284Z,56.14
2023-04-24T16:17:09.441Z,56.16
2023-04-24T16:19:36.375Z,55.91
2023-04-24T16:22:04.185Z,55.94
2023-04-24T16:24:31.323Z,55.98
2023-04-24T16:26:58.250Z,55.68
2023-04-24T16:29:25.084Z,55.77
2023-04-24T16:31:51.920Z,55.75
2023-04-24T16:34:18.934Z,55.92
2023-04-24T16:36:45.753Z,55.91
2023-04-24T16:39:13.221Z,56.19
2023-04-24T16:41:40.300Z,56.06
2023-04-24T16:44:07.438Z,56.31
2023-04-24T16:46:34.654Z,56.56
2023-04-24T16:49:01.603Z,56.48
2023-04-24T16:51:29.097Z,56.70
2023-04-24T16:53:56.209Z,56.61
2023-04-24T16:56:23.233Z,56.71
2023-04-24T16:58:50.862Z,56.72
2023-04-24T17:01:18.057Z,56.66
2023-04-24T17:03:45.219Z,56.62
2023-04-24T17:06:12.717Z,56.68
2023-04-24T17:08:39.394Z,56.70
2023-04-24T17:11:09.188Z,56.61
2023-04-24T17:13:36.151Z,56.67
2023-04-24T17:16:03.051Z,56.49
2023-04-24T17:18:29.836Z,56.76
2023-04-24T17:20:56.696Z,56.57
2023-04-24T17:23:23.542Z,56.67
2023-04-24T17:25:50.336Z,56.70
2023-04-24T17:28:29.368Z,56.67
2023-04-24T17:30:58.564Z,56.68
2023-04-24T17:33:26.152Z,56.81
2023-04-24T17:35:53.092Z,56.74
2023-04-24T17:38:20.933Z,56.76
2023-04-24T17:40:47.668Z,56.75
2023-04-24T17:43:18.074Z,56.64
2023-04-24T17:45:49.834Z,56.87
2023-04-24T17:48:18.182Z,56.93
2023-04-24T17:50:46.004Z,56.46
2023-04-24T17:53:12.720Z,56.35
2023-04-24T17:55:40.529Z,56.14
2023-04-24T17:58:07.946Z,56.35
2023-04-24T18:00:35.300Z,56.24
2023-04-24T18:03:03.686Z,56.09
2023-04-24T18:05:31.832Z,56.34
2023-04-24T18:07:59.203Z,56.38
2023-04-24T18:10:27.913Z,56.18
2023-04-24T18:12:55.055Z,56.22
2023-04-24T18:15:22.070Z,56.19
2023-04-24T18:17:49.136Z,55.96
2023-04-24T18:20:17.791Z,56.17
2023-04-24T18:22:44.805Z,56.32
2023-04-24T18:25:12.174Z,56.62
2023-04-24T18:27:40.150Z,56.70
2023-04-24T18:30:08.658Z,56.73
2023-04-24T18:32:35.843Z,56.71
2023-04-24T18:35:03.443Z,56.85
2023-04-24T18:37:32.860Z,56.67
2023-04-24T18:39:59.375Z,56.67
2023-04-24T18:42:26.029Z,56.74
2023-04-24T18:45:02.562Z,56.90
2023-04-24T18:47:29.327Z,56.84
2023-04-24T18:49:56.451Z,56.96
2023-04-24T18:52:24.245Z,56.94
2023-04-24T18:54:51.229Z,57.03
2023-04-24T18:57:18.000Z,56.97
2023-04-24T18:59:44.794Z,56.99
2023-04-24T19:02:11.854Z,57.13
2023-04-24T19:04:38.653Z,57.15
2023-04-24T19:07:05.548Z,57.30
2023-04-24T19:09:32.358Z,57.03
2023-04-24T19:12:00.194Z,57.45
2023-04-24T19:14:27.005Z,57.41
2023-04-24T19:16:54.011Z,57.46
2023-04-24T19:19:21.730Z,57.49
2023-04-24T19:21:50.121Z,57.44
2023-04-24T19:24:19.085Z,57.77
2023-04-24T19:26:46.385Z,57.70
2023-04-24T19:29:13.202Z,57.74
2023-04-24T19:31:40.195Z,57.74
2023-04-24T19:34:06.985Z,57.90
2023-04-24T19:36:34.046Z,57.96
2023-04-24T19:39:00.988Z,57.85
2023-04-24T19:41:27.717Z,57.86
2023-04-24T19:43:54.495Z,57.88
2023-04-24T19:46:21.402Z,57.93
2023-04-24T19:48:48.352Z,57.85
2023-04-24T19:51:15.486Z,57.87
2023-04-24T19:53:43.558Z,57.88
2023-04-24T19:56:10.587Z,57.96
2023-04-24T19:58:37.218Z,57.99
2023-04-24T20:01:05.927Z,57.98
2023-04-24T20:03:34.010Z,57.99
2023-04-24T20:06:01.485Z,58.02
2023-04-24T20:08:28.226Z,58.11
2023-04-24T20:10:57.818Z,58.19
2023-04-24T20:13:27.550Z,58.15
2023-04-24T20:15:54.152Z,58.14
2023-04-24T20:18:21.366Z,58.18
2023-04-24T20:20:48.090Z,58.16
2023-04-24T20:23:14.806Z,58.09
2023-04-24T20:25:41.436Z,58.16
2023-04-24T20:28:08.140Z,58.13
2023-04-24T20:30:34.861Z,58.14
2023-04-24T20:33:01.692Z,58.19
2023-04-24T20:35:28.477Z,58.25
2023-04-24T20:37:55.231Z,58.17
2023-04-24T20:40:22.030Z,58.23
2023-04-24T20:42:49.824Z,58.35
2023-04-24T20:45:17.913Z,58.22
2023-04-24T20:47:44.771Z,58.23
2023-04-24T20:50:12.150Z,58.37
2023-04-24T20:52:39.057Z,58.24
2023-04-24T20:55:06.882Z,58.24
2023-04-24T20:57:34.013Z,58.12
2023-04-24T21:00:04.186Z,58.25
2023-04-24T21:02:31.070Z,58.38
2023-04-24T21:04:57.787Z,58.47
2023-04-24T21:07:24.450Z,58.36
2023-04-24T21:09:51.211Z,58.35
2023-04-24T21:12:18.081Z,58.36
2023-04-24T21:14:44.919Z,58.27
2023-04-24T21:17:11.736Z,58.43
2023-04-24T21:19:38.607Z,58.51
2023-04-24T21:22:05.505Z,58.38
2023-04-24T21:24:32.273Z,58.50
2023-04-24T21:26:59.196Z,58.59
2023-04-24T21:29:26.351Z,58.48
2023-04-24T21:31:53.304Z,58.56
2023-04-24T21:34:19.929Z,58.64
2023-04-24T21:36:47.814Z,58.63
2023-04-24T21:39:14.719Z,58.69
2023-04-24T21:41:41.712Z,58.71
2023-04-24T21:44:08.909Z,58.59
2023-04-24T21:46:36.145Z,58.65
2023-04-24T21:49:02.925Z,58.81
2023-04-24T21:51:29.523Z,58.87
2023-04-24T21:53:56.330Z,58.74
2023-04-24T21:56:23.207Z,58.69
2023-04-24T21:58:50.020Z,58.73
2023-04-24T22:01:16.931Z,58.68
2023-04-24T22:03:43.719Z,58.73
2023-04-24T22:06:10.679Z,58.88
2023-04-24T22:08:37.511Z,58.58
2023-04-24T22:11:07.208Z,58.80
2023-04-24T22:13:37.900Z,58.78
2023-04-24T22:16:04.806Z,58.63
2023-04-24T22:18:46.081Z,58.78
2023-04-24T22:21:13.919Z,58.91
2023-04-24T22:23:40.792Z,59.00
2023-04-24T22:26:07.542Z,58.75
2023-04-24T22:28:34.320Z,58.79
2023-04-24T22:31:01.213Z,58.80
2023-04-24T22:33:28.156Z,58.88
2023-04-24T22:35:55.239Z,58.88
2023-04-24T22:38:21.846Z,58.88
2023-04-24T22:40:48.974Z,59.03
2023-04-24T22:43:17.401Z,59.05
2023-04-24T22:45:43.986Z,59.07
2023-04-24T22:48:10.714Z,58.96
2023-04-24T22:50:37.518Z,59.05
2023-04-24T22:53:04.145Z,58.94
2023-04-24T22:55:31.415Z,59.03
2023-04-24T22:57:58.329Z,59.06
2023-04-24T23:00:24.994Z,59.12
2023-04-24T23:02:51.816Z,59.11
2023-04-24T23:05:21.374Z,59.06
2023-04-24T23:07:48.078Z,59.08
2023-04-24T23:10:14.662Z,59.04
2023-04-24T23:12:41.483Z,59.17
2023-04-24T23:15:09.783Z,59.12
2023-04-24T23:17:36.389Z,59.17
2023-04-24T23:20:04.280Z,59.22
2023-04-24T23:22:31.267Z,59.21
2023-04-24T23:24:57.933Z,59.37
2023-04-24T23:27:24.595Z,58.98
2023-04-24T23:29:51.922Z,58.87
2023-04-24T23:32:18.833Z,59.51
2023-04-24T23:34:45.792Z,59.52
2023-04-24T23:37:12.693Z,59.19
2023-04-24T23:39:39.537Z,59.16
2023-04-24T23:42:07.834Z,59.32
2023-04-24T23:44:35.050Z,59.39
2023-04-24T23:47:01.742Z,59.33
2023-04-24T23:49:28.314Z,59.17
2023-04-24T23:51:56.269Z,59.30
2023-04-24T23:54:22.939Z,59.38
2023-04-24T23:56:50.171Z,59.28
2023-04-24T23:59:16.835Z,59.28
